createdAt,value
2019-01-19T00:01:38.084Z,3.20
2019-01-19T00:05:10.183Z,3.20
2019-01-19T00:07:58.686Z,3.20
2019-01-19T00:11:08.665Z,3.10
2019-01-19T00:13:59.699Z,3.10
2019-01-19T00:17:07.928Z,3.10
2019-01-19T00:20:15.366Z,3.10
2019-01-19T00:23:04.818Z,3.10
2019-01-19T00:26:01.141Z,3.10
2019-01-19T00:28:47.176Z,3.10
2019-01-19T00:31:34.608Z,3.10
2019-01-19T00:34:37.758Z,3.10
2019-01-19T00:37:20.746Z,3.10
2019-01-19T00:40:14.337Z,3.10
2019-01-19T00:43:05.271Z,3.10
2019-01-19T00:46:14.078Z,3.10
2019-01-19T00:49:19.915Z,3.10
2019-01-19T00:52:29.918Z,3.00
2019-01-19T00:55:22.056Z,3.00
2019-01-19T00:58:15.993Z,3.00
2019-01-19T01:00:59.382Z,3.00
2019-01-19T01:04:25.446Z,3.00
2019-01-19T01:07:32.694Z,3.00
2019-01-19T01:10:31.813Z,3.00
2019-01-19T01:13:27.659Z,2.90
2019-01-19T01:16:15.542Z,2.90
2019-01-19T01:19:01.153Z,2.90
2019-01-19T01:22:25.470Z,2.90
2019-01-19T01:25:19.241Z,2.90
2019-01-19T01:28:45.619Z,2.90
2019-01-19T01:31:47.168Z,2.90
2019-01-19T01:34:54.752Z,2.90
2019-01-19T01:38:00.621Z,2.80
2019-01-19T01:41:11.976Z,2.80
2019-01-19T01:44:33.131Z,2.90
2019-01-19T01:48:08.615Z,2.80
2019-01-19T01:50:55.583Z,2.80
2019-01-19T01:54:15.710Z,2.80
2019-01-19T01:56:45.687Z,2.80
2019-01-19T01:59:22.592Z,2.80
2019-01-19T02:02:41.741Z,2.80
2019-01-19T02:05:42.511Z,2.80
2019-01-19T02:08:45.785Z,2.80
2019-01-19T02:11:50.973Z,2.80
2019-01-19T02:14:54.502Z,2.70
2019-01-19T02:17:55.869Z,2.70
2019-01-19T02:20:47.849Z,2.70
2019-01-19T02:23:53.019Z,2.70
2019-01-19T02:27:28.569Z,2.70
2019-01-19T02:30:49.756Z,2.70
2019-01-19T02:33:59.051Z,2.70
2019-01-19T02:37:19.506Z,2.60
2019-01-19T02:40:33.594Z,2.60
2019-01-19T02:43:51.173Z,2.60
2019-01-19T02:46:57.109Z,2.60
2019-01-19T02:50:12.099Z,2.50
2019-01-19T02:53:11.327Z,2.50
2019-01-19T02:56:18.755Z,2.50
2019-01-19T02:59:31.031Z,2.50
2019-01-19T03:02:31.600Z,2.50
2019-01-19T03:05:57.516Z,2.50
2019-01-19T03:09:04.403Z,2.50
2019-01-19T03:11:46.512Z,2.50
2019-01-19T03:14:29.647Z,2.50
2019-01-19T03:17:55.742Z,2.50
2019-01-19T03:20:40.196Z,2.50
2019-01-19T03:23:53.221Z,2.50
2019-01-19T03:26:40.393Z,2.50
2019-01-19T03:29:40.318Z,2.40
2019-01-19T03:32:55.479Z,2.40
2019-01-19T03:35:50.863Z,2.40
2019-01-19T03:38:49.823Z,2.40
2019-01-19T03:41:40.629Z,2.40
2019-01-19T03:44:39.805Z,2.30
2019-01-19T03:47:49.528Z,2.30
2019-01-19T03:50:56.401Z,2.30
2019-01-19T03:53:39.892Z,2.30
2019-01-19T03:56:32.655Z,2.30
2019-01-19T03:59:36.313Z,2.30
2019-01-19T04:02:30.548Z,2.30
2019-01-19T04:05:43.501Z,2.30
2019-01-19T04:09:12.613Z,2.30
2019-01-19T04:12:10.730Z,2.30
2019-01-19T04:15:21.119Z,2.20
2019-01-19T04:17:59.305Z,2.20
2019-01-19T04:20:44.395Z,2.20
2019-01-19T04:23:14.715Z,2.20
2019-01-19T04:26:03.971Z,2.20
2019-01-19T04:28:34.128Z,2.20
2019-01-19T04:31:04.476Z,2.20
2019-01-19T04:33:34.474Z,2.20
2019-01-19T04:36:04.481Z,2.20
2019-01-19T04:38:36.137Z,2.20
2019-01-19T04:41:06.126Z,2.20
2019-01-19T04:43:36.161Z,2.20
2019-01-19T04:46:06.847Z,2.10
2019-01-19T04:48:37.785Z,2.10
2019-01-19T04:51:08.093Z,2.10
2019-01-19T04:53:38.115Z,2.10
2019-01-19T04:56:08.128Z,2.10
2019-01-19T04:58:39.111Z,2.10
2019-01-19T05:01:09.431Z,2.10
2019-01-19T05:03:39.418Z,2.10
2019-01-19T05:06:12.483Z,2.10
2019-01-19T05:08:42.321Z,2.00
2019-01-19T05:11:12.331Z,2.10
2019-01-19T05:13:42.693Z,2.00
2019-01-19T05:16:12.709Z,2.00
2019-01-19T05:18:43.110Z,2.00
2019-01-19T05:21:13.698Z,2.00
2019-01-19T05:23:43.990Z,2.00
2019-01-19T05:26:13.972Z,2.00
2019-01-19T05:28:44.330Z,2.00
2019-01-19T05:31:14.294Z,2.00
2019-01-19T05:33:44.295Z,2.00
2019-01-19T05:36:14.282Z,2.00
2019-01-19T05:38:44.701Z,2.00
2019-01-19T05:41:14.813Z,1.90
2019-01-19T05:43:44.839Z,1.90
2019-01-19T05:46:21.353Z,1.90
2019-01-19T05:48:46.820Z,1.90
2019-01-19T05:51:16.822Z,1.90
2019-01-19T05:53:46.841Z,1.90
2019-01-19T05:56:16.829Z,1.90
2019-01-19T05:58:46.846Z,1.90
2019-01-19T06:01:16.979Z,1.90
2019-01-19T06:03:47.324Z,1.90
2019-01-19T06:06:17.699Z,1.90
2019-01-19T06:08:48.042Z,1.90
2019-01-19T06:11:18.109Z,1.90
2019-01-19T06:13:48.147Z,2.00
2019-01-19T06:16:18.154Z,1.90
2019-01-19T06:18:48.760Z,2.00
2019-01-19T06:21:21.200Z,2.00
2019-01-19T06:23:51.212Z,2.00
2019-01-19T06:26:21.225Z,2.00
2019-01-19T06:28:51.264Z,2.00
2019-01-19T06:31:21.247Z,2.00
2019-01-19T06:33:51.626Z,1.90
2019-01-19T06:36:22.053Z,1.90
2019-01-19T06:38:52.482Z,1.90
2019-01-19T06:41:22.526Z,1.90
2019-01-19T06:43:52.958Z,1.90
2019-01-19T06:46:22.963Z,1.90
2019-01-19T06:48:52.987Z,1.80
2019-01-19T06:51:22.979Z,1.80
2019-01-19T06:54:01.335Z,1.90
2019-01-19T06:56:25.815Z,1.80
2019-01-19T06:58:55.894Z,1.80
2019-01-19T07:01:25.898Z,1.80
2019-01-19T07:03:55.901Z,1.80
2019-01-19T07:06:26.233Z,1.80
2019-01-19T07:08:56.254Z,1.80
2019-01-19T07:11:26.523Z,1.80
2019-01-19T07:13:56.702Z,1.80
2019-01-19T07:16:27.114Z,1.80
2019-01-19T07:18:57.201Z,1.80
2019-01-19T07:21:27.200Z,1.80
2019-01-19T07:23:57.221Z,1.80
2019-01-19T07:26:27.199Z,1.80
2019-01-19T07:28:57.209Z,1.80
2019-01-19T07:31:28.208Z,1.80
2019-01-19T07:33:58.482Z,1.80
2019-01-19T07:36:28.511Z,1.80
2019-01-19T07:38:58.526Z,1.80
2019-01-19T07:41:28.534Z,1.70
2019-01-19T07:43:58.799Z,1.80
2019-01-19T07:46:29.585Z,1.70
2019-01-19T07:48:59.551Z,1.70
2019-01-19T07:51:29.566Z,1.70
2019-01-19T07:53:59.562Z,1.70
2019-01-19T07:56:29.552Z,1.70
2019-01-19T07:58:59.576Z,1.70
2019-01-19T08:01:29.576Z,1.70
2019-01-19T08:03:59.585Z,1.70
2019-01-19T08:06:29.594Z,1.70
2019-01-19T08:09:00.651Z,1.70
2019-01-19T08:11:31.471Z,1.70
2019-01-19T08:14:02.152Z,1.70
2019-01-19T08:16:32.584Z,1.70
2019-01-19T08:19:02.635Z,1.70
2019-01-19T08:21:32.626Z,1.70
2019-01-19T08:24:02.685Z,1.70
2019-01-19T08:26:32.709Z,1.70
2019-01-19T08:29:03.435Z,1.70
2019-01-19T08:31:33.839Z,1.70
2019-01-19T08:34:04.205Z,1.70
2019-01-19T08:36:34.267Z,1.70
2019-01-19T08:39:06.207Z,1.70
2019-01-19T08:41:36.242Z,1.70
2019-01-19T08:44:07.418Z,1.70
2019-01-19T08:46:37.512Z,1.70
2019-01-19T08:49:07.529Z,1.70
2019-01-19T08:51:37.897Z,1.80
2019-01-19T08:54:09.039Z,1.80
2019-01-19T08:56:39.361Z,1.80
2019-01-19T08:59:09.875Z,1.80
2019-01-19T09:01:39.927Z,1.80
2019-01-19T09:04:09.923Z,1.90
2019-01-19T09:06:40.670Z,1.90
2019-01-19T09:09:10.745Z,1.90
2019-01-19T09:11:41.091Z,2.00
2019-01-19T09:14:11.083Z,1.90
2019-01-19T09:16:41.767Z,1.90
2019-01-19T09:19:12.121Z,2.00
2019-01-19T09:21:42.271Z,1.90
2019-01-19T09:24:16.753Z,1.90
2019-01-19T09:26:46.784Z,1.90
2019-01-19T09:29:16.883Z,2.00
2019-01-19T09:31:47.960Z,2.00
2019-01-19T09:34:18.302Z,2.00
2019-01-19T09:36:48.632Z,2.00
2019-01-19T09:39:19.052Z,2.00
2019-01-19T09:41:49.057Z,2.00
2019-01-19T09:44:19.178Z,2.10
2019-01-19T09:46:49.214Z,2.10
2019-01-19T09:49:19.580Z,2.10
2019-01-19T09:51:49.601Z,2.10
2019-01-19T09:54:20.251Z,2.10
2019-01-19T09:56:50.303Z,2.10
2019-01-19T09:59:20.731Z,2.10
2019-01-19T10:01:50.753Z,2.10
2019-01-19T10:04:20.759Z,2.10
2019-01-19T10:06:50.754Z,2.10
2019-01-19T10:09:21.166Z,2.10
2019-01-19T10:11:51.279Z,2.20
2019-01-19T10:14:21.727Z,2.10
2019-01-19T10:16:51.761Z,2.10
2019-01-19T10:19:22.190Z,2.10
2019-01-19T10:21:52.201Z,2.10
2019-01-19T10:24:22.199Z,2.10
2019-01-19T10:26:52.528Z,2.10
2019-01-19T10:29:23.078Z,2.10
2019-01-19T10:31:53.499Z,2.20
2019-01-19T10:34:23.501Z,2.20
2019-01-19T10:36:53.923Z,2.20
2019-01-19T10:39:24.337Z,2.20
2019-01-19T10:41:54.493Z,2.20
2019-01-19T10:44:24.579Z,2.20
2019-01-19T10:46:55.712Z,2.20
2019-01-19T10:49:26.207Z,2.20
2019-01-19T10:51:59.497Z,2.20
2019-01-19T10:54:27.967Z,2.20
2019-01-19T10:56:58.289Z,2.20
2019-01-19T10:59:29.875Z,2.20
2019-01-19T11:01:59.987Z,2.20
2019-01-19T11:04:30.354Z,2.30
2019-01-19T11:07:00.400Z,2.30
2019-01-19T11:09:30.358Z,2.30
2019-01-19T11:12:00.722Z,2.30
2019-01-19T11:14:31.131Z,2.30
2019-01-19T11:17:01.225Z,2.40
2019-01-19T11:19:31.231Z,2.40
2019-01-19T11:22:01.587Z,2.40
2019-01-19T11:24:31.753Z,2.40
2019-01-19T11:27:01.817Z,2.40
2019-01-19T11:29:31.807Z,2.40
2019-01-19T11:32:01.854Z,2.40
2019-01-19T11:34:31.824Z,2.50
2019-01-19T11:37:01.877Z,2.50
2019-01-19T11:39:31.879Z,2.50
2019-01-19T11:42:02.230Z,2.50
2019-01-19T11:44:32.576Z,2.50
2019-01-19T11:47:02.913Z,2.50
2019-01-19T11:49:33.316Z,2.50
2019-01-19T11:52:03.698Z,2.50
2019-01-19T11:54:33.981Z,2.60
2019-01-19T11:57:03.999Z,2.60
2019-01-19T11:59:34.311Z,2.60
2019-01-19T12:02:04.425Z,2.60
2019-01-19T12:04:34.534Z,2.60
2019-01-19T12:07:04.832Z,2.60
2019-01-19T12:09:34.833Z,2.60
2019-01-19T12:12:05.398Z,2.70
2019-01-19T12:14:35.472Z,2.70
2019-01-19T12:17:05.449Z,2.70
2019-01-19T12:19:35.458Z,2.80
2019-01-19T12:22:05.912Z,2.80
2019-01-19T12:24:36.217Z,2.80
2019-01-19T12:27:06.437Z,2.80
2019-01-19T12:29:36.686Z,2.80
2019-01-19T12:32:07.003Z,2.80
2019-01-19T12:34:37.044Z,2.80
2019-01-19T12:37:07.055Z,2.80
2019-01-19T12:39:37.158Z,2.80
2019-01-19T12:42:07.177Z,2.80
2019-01-19T12:44:37.182Z,2.80
2019-01-19T12:47:07.685Z,2.80
2019-01-19T12:49:37.723Z,2.80
2019-01-19T12:52:07.913Z,2.80
2019-01-19T12:54:38.208Z,2.80
2019-01-19T12:57:08.404Z,2.80
2019-01-19T12:59:38.632Z,2.80
2019-01-19T13:02:09.245Z,2.80
2019-01-19T13:04:39.363Z,2.80
2019-01-19T13:07:14.633Z,2.90
2019-01-19T13:10:14.889Z,2.80
2019-01-19T13:13:12.525Z,2.80
2019-01-19T13:16:08.193Z,2.80
2019-01-19T13:19:09.447Z,2.80
2019-01-19T13:22:28.511Z,2.80
2019-01-19T13:25:52.015Z,2.80
2019-01-19T13:29:12.337Z,2.80
2019-01-19T13:32:13.206Z,2.70
2019-01-19T13:35:19.219Z,2.80
2019-01-19T13:38:14.967Z,2.80
2019-01-19T13:41:29.040Z,2.70
2019-01-19T13:44:48.955Z,2.80
2019-01-19T13:48:06.203Z,2.80
2019-01-19T13:51:20.102Z,2.80
2019-01-19T13:54:23.205Z,2.80
2019-01-19T13:57:33.092Z,2.80
2019-01-19T14:00:38.155Z,2.80
2019-01-19T14:03:45.759Z,2.80
2019-01-19T14:06:36.093Z,2.80
2019-01-19T14:09:57.108Z,2.80
2019-01-19T14:12:54.030Z,2.80
2019-01-19T14:15:45.577Z,2.80
2019-01-19T14:18:36.094Z,2.80
2019-01-19T14:21:42.694Z,2.80
2019-01-19T14:24:53.311Z,2.80
2019-01-19T14:27:40.054Z,2.80
2019-01-19T14:30:25.273Z,2.80
2019-01-19T14:33:47.559Z,2.80
2019-01-19T14:36:54.358Z,2.80
2019-01-19T14:39:49.804Z,2.70
2019-01-19T14:42:40.323Z,2.80
2019-01-19T14:45:54.654Z,2.80
2019-01-19T14:48:57.675Z,2.80
2019-01-19T14:51:57.371Z,2.80
2019-01-19T14:54:57.974Z,2.80
2019-01-19T14:57:57.022Z,2.80
2019-01-19T15:01:04.072Z,2.80
2019-01-19T15:04:36.366Z,2.80
2019-01-19T15:07:42.367Z,2.80
2019-01-19T15:14:31.029Z,2.80
2019-01-19T15:17:36.850Z,2.80
2019-01-19T15:20:17.762Z,2.70
2019-01-19T15:23:34.181Z,2.70
2019-01-19T15:26:42.384Z,2.70
2019-01-19T15:29:38.437Z,2.70
2019-01-19T15:32:27.831Z,2.70
2019-01-19T15:35:27.531Z,2.70
2019-01-19T15:38:05.552Z,2.70
2019-01-19T15:41:12.314Z,2.70
2019-01-19T15:44:12.578Z,2.80
2019-01-19T15:47:27.967Z,2.80
2019-01-19T15:50:23.186Z,2.80
2019-01-19T15:53:00.743Z,2.70
2019-01-19T15:55:38.366Z,2.70
2019-01-19T15:58:33.434Z,2.70
2019-01-19T16:01:30.511Z,2.70
2019-01-19T16:04:39.504Z,2.70
2019-01-19T16:07:53.385Z,2.70
2019-01-19T16:11:13.610Z,2.70
2019-01-19T16:14:25.655Z,2.70
2019-01-19T16:17:25.632Z,2.70
2019-01-19T16:20:35.529Z,2.70
2019-01-19T16:23:46.698Z,2.70
2019-01-19T16:26:39.375Z,2.60
2019-01-19T16:29:52.812Z,2.60
2019-01-19T16:33:11.938Z,2.60
2019-01-19T16:36:33.877Z,2.60
2019-01-19T16:39:28.418Z,2.60
2019-01-19T16:42:37.511Z,2.60
2019-01-19T16:45:45.766Z,2.60
2019-01-19T16:48:47.893Z,2.50
2019-01-19T16:52:04.115Z,2.60
2019-01-19T16:54:55.862Z,2.60
2019-01-19T16:58:14.660Z,2.60
2019-01-19T17:01:21.697Z,2.60
2019-01-19T17:04:47.416Z,2.50
2019-01-19T17:07:39.737Z,2.50
2019-01-19T17:10:49.682Z,2.50
2019-01-19T17:13:57.645Z,2.50
2019-01-19T17:16:49.583Z,2.50
2019-01-19T17:20:15.403Z,2.50
2019-01-19T17:23:21.226Z,2.50
2019-01-19T17:26:31.029Z,2.50
2019-01-19T17:29:56.058Z,2.50
2019-01-19T17:32:36.321Z,2.50
2019-01-19T17:35:41.999Z,2.50
2019-01-19T17:38:48.639Z,2.50
2019-01-19T17:41:56.896Z,2.50
2019-01-19T17:45:14.939Z,2.50
2019-01-19T17:48:26.398Z,2.50
2019-01-19T17:51:29.248Z,2.50
2019-01-19T17:54:52.701Z,2.50
2019-01-19T17:58:12.942Z,2.50
2019-01-19T18:01:24.186Z,2.50
2019-01-19T18:04:20.216Z,2.50
2019-01-19T18:08:01.784Z,2.50
2019-01-19T18:10:49.981Z,2.50
2019-01-19T18:14:04.062Z,2.50
2019-01-19T18:17:14.700Z,2.50
2019-01-19T18:20:25.775Z,2.50
2019-01-19T18:23:35.591Z,2.50
2019-01-19T18:26:23.972Z,2.50
2019-01-19T18:29:18.041Z,2.50
2019-01-19T18:32:25.440Z,2.50
2019-01-19T18:35:30.624Z,2.50
2019-01-19T18:39:13.059Z,2.40
2019-01-19T18:42:12.654Z,2.40
2019-01-19T18:45:13.132Z,2.40
2019-01-19T18:47:58.940Z,2.40
2019-01-19T18:51:09.469Z,2.40
2019-01-19T18:53:49.718Z,2.40
2019-01-19T18:57:09.928Z,2.40
2019-01-19T19:00:15.488Z,2.40
2019-01-19T19:03:42.012Z,2.40
2019-01-19T19:07:04.386Z,2.40
2019-01-19T19:10:02.068Z,2.40
2019-01-19T19:13:03.729Z,2.40
2019-01-19T19:16:24.564Z,2.30
2019-01-19T19:19:35.582Z,2.30
2019-01-19T19:23:11.021Z,2.30
2019-01-19T19:26:19.412Z,2.30
2019-01-19T19:29:25.852Z,2.30
2019-01-19T19:32:34.494Z,2.30
2019-01-19T19:35:32.544Z,2.30
2019-01-19T19:38:31.823Z,2.30
2019-01-19T19:41:55.997Z,2.30
2019-01-19T19:45:19.310Z,2.30
2019-01-19T19:48:42.689Z,2.30
2019-01-19T19:51:58.799Z,2.20
2019-01-19T19:54:31.758Z,2.30
2019-01-19T19:57:02.249Z,2.20
2019-01-19T19:59:32.884Z,2.20
2019-01-19T20:02:02.988Z,2.20
2019-01-19T20:04:33.076Z,2.20
2019-01-19T20:07:03.167Z,2.20
2019-01-19T20:09:33.836Z,2.20
2019-01-19T20:12:08.218Z,2.20
2019-01-19T20:14:38.338Z,2.20
2019-01-19T20:17:09.358Z,2.20
2019-01-19T20:19:39.407Z,2.20
2019-01-19T20:22:09.445Z,2.20
2019-01-19T20:24:40.221Z,2.20
2019-01-19T20:27:10.305Z,2.20
2019-01-19T20:29:40.337Z,2.20
2019-01-19T20:32:10.452Z,2.20
2019-01-19T20:34:44.296Z,2.20
2019-01-19T20:37:14.923Z,2.20
2019-01-19T20:39:46.409Z,2.10
2019-01-19T20:42:16.672Z,2.10
2019-01-19T20:44:46.888Z,2.10
2019-01-19T20:47:19.096Z,2.10
2019-01-19T20:49:51.511Z,2.10
2019-01-19T20:52:21.503Z,2.10
2019-01-19T20:54:53.440Z,2.00
2019-01-19T20:57:23.650Z,2.00
2019-01-19T20:59:54.042Z,2.10
2019-01-19T21:02:24.144Z,2.00
2019-01-19T21:04:54.131Z,2.00
2019-01-19T21:07:26.606Z,2.00
2019-01-19T21:09:56.995Z,2.00
2019-01-19T21:12:27.113Z,2.00
2019-01-19T21:14:57.545Z,2.00
2019-01-19T21:17:27.562Z,1.90
2019-01-19T21:19:58.060Z,1.90
2019-01-19T21:22:28.069Z,1.90
2019-01-19T21:24:58.411Z,1.90
2019-01-19T21:27:28.750Z,1.90
2019-01-19T21:29:58.765Z,1.90
2019-01-19T21:32:28.779Z,1.90
2019-01-19T21:34:58.809Z,1.90
2019-01-19T21:37:28.879Z,1.90
2019-01-19T21:40:08.302Z,1.90
2019-01-19T21:42:38.330Z,1.90
2019-01-19T21:45:15.923Z,1.90
2019-01-19T21:47:46.145Z,1.90
2019-01-19T21:50:19.805Z,1.90
2019-01-19T21:52:49.824Z,1.90
2019-01-19T21:55:19.936Z,1.90
2019-01-19T21:57:49.966Z,1.80
2019-01-19T22:00:20.155Z,1.80
2019-01-19T22:02:50.181Z,1.80
2019-01-19T22:05:20.253Z,1.80
2019-01-19T22:07:50.294Z,1.80
2019-01-19T22:10:23.404Z,1.80
2019-01-19T22:12:53.417Z,1.80
2019-01-19T22:15:23.851Z,1.80
2019-01-19T22:18:06.838Z,1.80
2019-01-19T22:20:37.308Z,1.80
2019-01-19T22:23:07.474Z,1.70
2019-01-19T22:25:37.519Z,1.70
2019-01-19T22:28:07.850Z,1.70
2019-01-19T22:30:37.879Z,1.70
2019-01-19T22:33:09.216Z,1.70
2019-01-19T22:35:39.611Z,1.60
2019-01-19T22:38:09.666Z,1.60
2019-01-19T22:40:40.146Z,1.60
2019-01-19T22:43:14.140Z,1.60
2019-01-19T22:45:44.199Z,1.60
2019-01-19T22:48:14.537Z,1.60
2019-01-19T22:50:44.561Z,1.60
2019-01-19T22:53:14.979Z,1.60
2019-01-19T22:55:45.010Z,1.60
2019-01-19T22:58:15.053Z,1.50
2019-01-19T23:01:08.665Z,1.50
2019-01-19T23:03:40.231Z,1.50
2019-01-19T23:06:10.299Z,1.50
2019-01-19T23:08:40.688Z,1.50
2019-01-19T23:11:11.151Z,1.40
2019-01-19T23:13:41.527Z,1.40
2019-01-19T23:16:11.952Z,1.40
2019-01-19T23:18:41.981Z,1.40
2019-01-19T23:21:12.032Z,1.40
2019-01-19T23:23:42.035Z,1.40
2019-01-19T23:26:12.519Z,1.30
2019-01-19T23:28:42.584Z,1.30
2019-01-19T23:31:12.623Z,1.30
2019-01-19T23:33:42.639Z,1.30
2019-01-19T23:36:12.687Z,1.30
2019-01-19T23:38:43.082Z,1.30
2019-01-19T23:41:13.097Z,1.30
2019-01-19T23:43:43.147Z,1.30
2019-01-19T23:46:13.277Z,1.20
2019-01-19T23:48:43.879Z,1.20
2019-01-19T23:51:13.937Z,1.20
2019-01-19T23:53:44.970Z,1.20
2019-01-19T23:56:15.251Z,1.20
2019-01-19T23:58:45.291Z,1.10
